Time;durP1;ratioP1;P1;durP2;ratioP2;P2;SDS_P1;SDS_P2;PMS_P1;PMS_P2;Temp;Humidity;BMP_temperature;BMP_pressure;BME280_temperature;BME280_humidity;BME280_pressure;Samples;Min_cycle;Max_cycle;Signal;HPM_P1;HPM_P2
2022/08/01 00:01:39;;;;;;;;;;;17.60;67.20;;;;;;5087964;28;19913;-81
2022/08/01 00:04:05;;;;;;;;;;;17.50;67.20;;;;;;5069547;28;20023;-81
2022/08/01 00:06:31;;;;;;;;;;;17.50;67.20;;;;;;5087731;28;19915;-82
2022/08/01 00:08:56;;;;;;;;;;;17.50;67.20;;;;;;5087658;28;19912;-82
2022/08/01 00:11:22;;;;;;;;;;;17.50;67.20;;;;;;5086559;28;19912;-82
2022/08/01 00:13:48;;;;;;;;;;;17.50;67.20;;;;;;5069610;28;20283;-81
2022/08/01 00:16:13;;;;;;;;;;;17.50;67.20;;;;;;5069802;28;20364;-82
2022/08/01 00:18:39;;;;;;;;;;;17.50;67.10;;;;;;5086163;28;19914;-82
2022/08/01 00:21:04;;;;;;;;;;;17.50;67.00;;;;;;5086187;28;20330;-82
2022/08/01 00:23:30;;;;;;;;;;;17.40;67.00;;;;;;5090890;28;20015;-82
2022/08/01 00:25:56;;;;;;;;;;;17.30;67.00;;;;;;5090176;28;19961;-82
2022/08/01 00:28:21;;;;;;;;;;;17.30;67.10;;;;;;5073437;28;19916;-82
2022/08/01 00:30:47;;;;;;;;;;;17.20;67.10;;;;;;5090150;28;20376;-82
2022/08/01 00:33:13;;;;;;;;;;;17.20;67.20;;;;;;5091555;28;19999;-82
2022/08/01 00:35:38;;;;;;;;;;;17.10;67.10;;;;;;5090245;28;19953;-81
2022/08/01 00:38:04;;;;;;;;;;;17.00;67.10;;;;;;5073044;28;19981;-82
2022/08/01 00:40:29;;;;;;;;;;;17.00;67.30;;;;;;5089736;28;20362;-82
2022/08/01 00:42:55;;;;;;;;;;;17.00;67.30;;;;;;5072823;28;19922;-82
2022/08/01 00:45:20;;;;;;;;;;;17.00;67.40;;;;;;5091113;28;20395;-81
2022/08/01 00:47:46;;;;;;;;;;;16.90;67.30;;;;;;5089741;28;19919;-82
2022/08/01 00:50:12;;;;;;;;;;;16.90;67.30;;;;;;5089493;28;20072;-81
2022/08/01 00:52:39;;;;;;;;;;;16.90;67.30;;;;;;5089720;28;19919;-82
2022/08/01 00:55:05;;;;;;;;;;;16.90;67.30;;;;;;5091147;28;19912;-82
2022/08/01 00:57:31;;;;;;;;;;;16.90;67.30;;;;;;5072670;28;20360;-82
2022/08/01 00:59:57;;;;;;;;;;;16.80;67.20;;;;;;5089411;28;19916;-81
2022/08/01 01:02:22;;;;;;;;;;;16.80;67.20;;;;;;5089600;28;19912;-80
2022/08/01 01:04:48;;;;;;;;;;;16.80;67.30;;;;;;5089455;28;19913;-81
2022/08/01 01:07:19;;;;;;;;;;;16.70;67.20;;;;;;5089498;28;19912;-83
2022/08/01 01:09:50;;;;;;;;;;;16.70;67.20;;;;;;5090812;28;20322;-82
2022/08/01 01:12:16;;;;;;;;;;;16.70;67.30;;;;;;5089446;28;20288;-82
2022/08/01 01:15:00;;;;;;;;;;;16.60;67.20;;;;;;5089496;28;19926;-82
2022/08/01 01:17:45;;;;;;;;;;;16.70;67.20;;;;;;5090640;28;19908;-82
2022/08/01 01:20:12;;;;;;;;;;;16.60;67.30;;;;;;5090351;28;19912;-82
2022/08/01 01:22:38;;;;;;;;;;;16.60;67.30;;;;;;5088683;28;19923;-81
2022/08/01 01:25:19;;;;;;;;;;;16.50;67.40;;;;;;5090418;28;19908;-82
2022/08/01 01:27:44;;;;;;;;;;;16.50;67.50;;;;;;5090506;28;19995;-81
2022/08/01 01:30:10;;;;;;;;;;;16.50;67.50;;;;;;5090281;28;19915;-82
2022/08/01 01:32:38;;;;;;;;;;;16.50;67.50;;;;;;5088598;28;19991;-81
2022/08/01 01:35:08;;;;;;;;;;;16.40;67.50;;;;;;5090046;28;19912;-82
2022/08/01 01:37:35;;;;;;;;;;;16.50;67.60;;;;;;5090033;28;19908;-82
2022/08/01 01:40:02;;;;;;;;;;;16.50;67.60;;;;;;5088552;28;19924;-81
2022/08/01 01:42:28;;;;;;;;;;;16.50;67.60;;;;;;5088677;28;20238;-82
2022/08/01 01:44:54;;;;;;;;;;;16.40;67.60;;;;;;5088724;28;19999;-81
2022/08/01 01:47:20;;;;;;;;;;;16.40;67.60;;;;;;5088710;28;19929;-82
2022/08/01 01:49:46;;;;;;;;;;;16.40;67.50;;;;;;5071727;28;20347;-81
2022/08/01 01:52:16;;;;;;;;;;;16.40;67.50;;;;;;5088620;28;19962;-81
2022/08/01 01:54:45;;;;;;;;;;;16.40;67.50;;;;;;5089945;28;19935;-82
2022/08/01 01:57:12;;;;;;;;;;;16.40;67.50;;;;;;5088445;28;19995;-81
2022/08/01 01:59:38;;;;;;;;;;;16.40;67.40;;;;;;5088518;28;19969;-81
2022/08/01 02:02:05;;;;;;;;;;;16.40;67.40;;;;;;5088439;28;20328;-81
2022/08/01 02:04:32;;;;;;;;;;;16.30;67.40;;;;;;5088367;28;19908;-81
2022/08/01 02:06:58;;;;;;;;;;;16.30;67.50;;;;;;5088313;28;20265;-82
2022/08/01 02:09:25;;;;;;;;;;;16.20;67.40;;;;;;5088273;28;20319;-82
2022/08/01 02:11:53;;;;;;;;;;;16.30;67.50;;;;;;5088257;28;19939;-82
2022/08/01 02:14:19;;;;;;;;;;;16.20;67.40;;;;;;5089548;28;19908;-81
2022/08/01 02:16:47;;;;;;;;;;;16.20;67.40;;;;;;5088045;28;19930;-81
2022/08/01 02:19:13;;;;;;;;;;;16.20;67.40;;;;;;5088044;28;19915;-81
2022/08/01 02:21:41;;;;;;;;;;;16.20;67.40;;;;;;5089277;28;19915;-82
2022/08/01 02:24:09;;;;;;;;;;;16.20;67.40;;;;;;5088127;28;19915;-81
2022/08/01 02:26:38;;;;;;;;;;;16.20;67.40;;;;;;5089213;28;19912;-81
2022/08/01 02:29:06;;;;;;;;;;;16.20;67.40;;;;;;5087787;28;19974;-82
2022/08/01 02:31:35;;;;;;;;;;;16.20;67.40;;;;;;5089200;28;19915;-81
2022/08/01 02:34:04;;;;;;;;;;;16.20;67.60;;;;;;5087897;28;20248;-81
2022/08/01 02:36:32;;;;;;;;;;;16.10;67.60;;;;;;5087784;28;19908;-81
2022/08/01 02:38:58;;;;;;;;;;;16.10;67.60;;;;;;5087466;28;19920;-81
2022/08/01 02:41:26;;;;;;;;;;;16.10;67.60;;;;;;5089404;28;19973;-81
2022/08/01 02:43:52;;;;;;;;;;;16.10;67.70;;;;;;5087595;28;19912;-82
2022/08/01 02:46:24;;;;;;;;;;;16.00;67.70;;;;;;5088314;28;19974;-81
2022/08/01 02:48:52;;;;;;;;;;;16.10;67.70;;;;;;5087482;28;19918;-81
2022/08/01 02:51:18;;;;;;;;;;;16.10;67.70;;;;;;5087486;28;20348;-81
2022/08/01 02:53:44;;;;;;;;;;;16.10;67.60;;;;;;5088135;28;20368;-82
2022/08/01 02:56:11;;;;;;;;;;;16.10;67.50;;;;;;5070445;28;20256;-82
2022/08/01 02:58:37;;;;;;;;;;;16.10;67.50;;;;;;5070186;28;19942;-82
2022/08/01 03:01:04;;;;;;;;;;;16.10;67.50;;;;;;5070338;28;19969;-82
2022/08/01 03:03:31;;;;;;;;;;;16.10;67.60;;;;;;5088757;28;19953;-83
2022/08/01 03:05:57;;;;;;;;;;;16.00;67.80;;;;;;5087301;28;19916;-82
2022/08/01 03:08:23;;;;;;;;;;;16.00;67.60;;;;;;5087174;28;19915;-82
2022/08/01 03:10:50;;;;;;;;;;;16.00;67.50;;;;;;5088386;28;19912;-82
2022/08/01 03:13:16;;;;;;;;;;;16.00;67.50;;;;;;5086983;28;19912;-82
2022/08/01 03:15:43;;;;;;;;;;;16.00;67.50;;;;;;5087360;28;19912;-83
2022/08/01 03:18:10;;;;;;;;;;;15.90;67.40;;;;;;5087098;28;19908;-82
2022/08/01 03:20:35;;;;;;;;;;;16.00;67.50;;;;;;5086745;28;19914;-82
2022/08/01 03:23:03;;;;;;;;;;;15.90;67.40;;;;;;5070092;28;19923;-82
2022/08/01 03:25:29;;;;;;;;;;;15.90;67.50;;;;;;5086974;28;19908;-83
2022/08/01 03:27:56;;;;;;;;;;;15.80;67.50;;;;;;5070029;28;20018;-82
2022/08/01 03:30:23;;;;;;;;;;;15.80;67.40;;;;;;5086743;28;19908;-83
2022/08/01 03:32:49;;;;;;;;;;;15.80;67.40;;;;;;5086777;28;19908;-82
2022/08/01 03:35:14;;;;;;;;;;;15.70;67.40;;;;;;5069904;28;19920;-82
2022/08/01 03:37:47;;;;;;;;;;;15.80;67.40;;;;;;5088055;28;19958;-83
2022/08/01 03:40:22;;;;;;;;;;;15.80;67.40;;;;;;5086329;28;20396;-80
2022/08/01 03:42:49;;;;;;;;;;;15.70;67.40;;;;;;5086702;28;19908;-82
2022/08/01 03:45:35;;;;;;;;;;;15.70;67.40;;;;;;5086709;28;19912;-83
2022/08/01 03:48:10;;;;;;;;;;;15.70;67.40;;;;;;5087531;28;19912;-82
2022/08/01 03:50:37;;;;;;;;;;;15.80;67.50;;;;;;5088013;28;20344;-82
2022/08/01 03:53:05;;;;;;;;;;;15.80;67.50;;;;;;5086660;28;19908;-82
2022/08/01 03:55:31;;;;;;;;;;;15.80;67.50;;;;;;5086777;28;19909;-82
2022/08/01 03:57:57;;;;;;;;;;;15.80;67.40;;;;;;5090771;28;19912;-82
2022/08/01 04:00:24;;;;;;;;;;;15.80;67.40;;;;;;5090683;28;19967;-82
2022/08/01 04:02:50;;;;;;;;;;;15.80;67.30;;;;;;5091789;28;19912;-81
2022/08/01 04:05:16;;;;;;;;;;;15.80;67.30;;;;;;5090584;28;19908;-82
2022/08/01 04:07:46;;;;;;;;;;;15.70;67.30;;;;;;5091869;28;20272;-82
2022/08/01 04:10:12;;;;;;;;;;;15.70;67.30;;;;;;5090413;28;19908;-83
2022/08/01 04:12:37;;;;;;;;;;;15.60;67.30;;;;;;5090605;28;19923;-82
2022/08/01 04:15:04;;;;;;;;;;;15.60;67.40;;;;;;5091699;28;19931;-81
2022/08/01 04:17:29;;;;;;;;;;;15.60;67.40;;;;;;5090381;28;19912;-81
2022/08/01 04:19:55;;;;;;;;;;;15.50;67.40;;;;;;5090258;28;20367;-81
2022/08/01 04:22:20;;;;;;;;;;;15.50;68.00;;;;;;5073556;28;19917;-81
2022/08/01 04:24:48;;;;;;;;;;;15.40;67.60;;;;;;5090281;28;19908;-81
2022/08/01 04:27:17;;;;;;;;;;;15.40;67.70;;;;;;5090356;28;20362;-81
2022/08/01 04:29:42;;;;;;;;;;;15.50;67.70;;;;;;5090294;28;20256;-74
2022/08/01 04:32:10;;;;;;;;;;;15.60;67.70;;;;;;5091730;28;19912;-81
2022/08/01 04:34:37;;;;;;;;;;;15.70;67.70;;;;;;5090089;28;19926;-81
2022/08/01 04:37:04;;;;;;;;;;;15.90;67.70;;;;;;5090132;28;20253;-81
2022/08/01 04:39:31;;;;;;;;;;;15.90;67.60;;;;;;5091322;28;20338;-81
2022/08/01 04:41:58;;;;;;;;;;;16.00;67.50;;;;;;5091146;28;19912;-81
2022/08/01 04:44:24;;;;;;;;;;;16.00;67.40;;;;;;5073075;28;19957;-80
2022/08/01 04:46:51;;;;;;;;;;;15.90;67.20;;;;;;5073216;28;20272;-81
2022/08/01 04:49:16;;;;;;;;;;;15.90;67.30;;;;;;5090061;28;19914;-82
2022/08/01 04:51:52;;;;;;;;;;;15.90;67.40;;;;;;5089984;28;20287;-80
2022/08/01 04:54:18;;;;;;;;;;;15.90;67.40;;;;;;5091188;28;19912;-80
2022/08/01 04:56:43;;;;;;;;;;;15.90;67.40;;;;;;5091094;28;19915;-80
2022/08/01 05:01:53;;;;;;;;;;;15.80;67.40;;;;;;5090339;28;19973;-80
2022/08/01 05:04:18;;;;;;;;;;;15.90;67.50;;;;;;5089614;28;20315;-80
2022/08/01 05:06:44;;;;;;;;;;;15.90;67.50;;;;;;5089728;28;19912;-81
2022/08/01 05:09:09;;;;;;;;;;;15.90;67.50;;;;;;5071978;28;19912;-81
2022/08/01 05:11:35;;;;;;;;;;;15.90;67.60;;;;;;5089793;28;19912;-80
2022/08/01 05:14:01;;;;;;;;;;;16.00;67.60;;;;;;5089509;28;20356;-79
2022/08/01 05:16:26;;;;;;;;;;;16.10;67.60;;;;;;5089355;28;19995;-80
2022/08/01 05:18:52;;;;;;;;;;;16.10;67.60;;;;;;5089400;28;19908;-81
2022/08/01 05:21:17;;;;;;;;;;;16.10;67.50;;;;;;5089123;28;20372;-80
2022/08/01 05:23:43;;;;;;;;;;;16.20;67.60;;;;;;5089306;28;20360;-81
2022/08/01 05:26:09;;;;;;;;;;;16.20;67.60;;;;;;5072177;28;19939;-81
2022/08/01 05:28:35;;;;;;;;;;;16.30;67.60;;;;;;5089078;28;19917;-80
2022/08/01 05:31:00;;;;;;;;;;;16.40;67.70;;;;;;5072174;28;20299;-81
2022/08/01 05:33:26;;;;;;;;;;;16.40;67.60;;;;;;5090426;28;19908;-77
2022/08/01 05:35:51;;;;;;;;;;;16.50;67.60;;;;;;5072182;28;19923;-77
2022/08/01 05:38:17;;;;;;;;;;;16.50;67.60;;;;;;5088876;28;19922;-77
2022/08/01 05:40:42;;;;;;;;;;;16.60;67.50;;;;;;5071783;28;19924;-77
2022/08/01 05:43:08;;;;;;;;;;;16.60;67.50;;;;;;5072079;28;19955;-77
2022/08/01 05:45:33;;;;;;;;;;;16.60;67.50;;;;;;5089062;28;19920;-77
2022/08/01 05:47:59;;;;;;;;;;;16.70;67.50;;;;;;5072171;28;19912;-77
2022/08/01 05:50:24;;;;;;;;;;;16.80;67.50;;;;;;5090024;28;20453;-77
2022/08/01 05:52:50;;;;;;;;;;;16.90;67.50;;;;;;5088719;28;20019;-77
2022/08/01 05:55:16;;;;;;;;;;;16.90;67.50;;;;;;5088779;28;19912;-77
2022/08/01 05:57:41;;;;;;;;;;;17.00;67.60;;;;;;5071645;28;20355;-77
2022/08/01 06:00:07;;;;;;;;;;;17.10;67.60;;;;;;5071609;28;19916;-77
2022/08/01 06:02:33;;;;;;;;;;;17.10;67.50;;;;;;5088458;28;20364;-77
2022/08/01 06:04:58;;;;;;;;;;;17.20;67.40;;;;;;5088346;28;20011;-77
2022/08/01 06:07:24;;;;;;;;;;;17.20;67.40;;;;;;5071642;28;19916;-77
2022/08/01 06:09:49;;;;;;;;;;;17.30;67.40;;;;;;5088608;28;19916;-78
2022/08/01 06:12:15;;;;;;;;;;;17.40;67.50;;;;;;5071377;28;19912;-78
2022/08/01 06:14:40;;;;;;;;;;;17.40;67.50;;;;;;5071169;28;19913;-77
2022/08/01 06:17:06;;;;;;;;;;;17.50;67.50;;;;;;5071280;28;19913;-78
2022/08/01 06:19:31;;;;;;;;;;;17.60;67.50;;;;;;5087061;28;19912;-77
2022/08/01 06:21:57;;;;;;;;;;;17.60;67.50;;;;;;5071190;28;20322;-78
2022/08/01 06:24:23;;;;;;;;;;;17.70;67.60;;;;;;5071187;28;19919;-78
2022/08/01 06:26:49;;;;;;;;;;;17.80;67.70;;;;;;5087950;28;20281;-77
2022/08/01 06:29:15;;;;;;;;;;;18.00;67.60;;;;;;5070868;28;19960;-78
2022/08/01 06:31:40;;;;;;;;;;;18.30;67.70;;;;;;5087951;28;19916;-78
2022/08/01 06:34:06;;;;;;;;;;;18.70;67.40;;;;;;5088056;28;20272;-78
2022/08/01 06:36:31;;;;;;;;;;;19.00;67.00;;;;;;5088069;28;19908;-78
2022/08/01 06:38:57;;;;;;;;;;;19.10;66.90;;;;;;5088732;28;20035;-78
2022/08/01 06:41:23;;;;;;;;;;;19.10;66.70;;;;;;5088995;28;19920;-78
2022/08/01 06:43:48;;;;;;;;;;;19.20;66.80;;;;;;5087888;28;19944;-78
2022/08/01 06:46:14;;;;;;;;;;;19.20;66.80;;;;;;5070722;28;19966;-78
2022/08/01 06:48:40;;;;;;;;;;;19.20;67.00;;;;;;5070577;28;20364;-78
2022/08/01 06:51:08;;;;;;;;;;;19.10;66.90;;;;;;5070522;28;19920;-78
2022/08/01 06:53:35;;;;;;;;;;;19.10;66.90;;;;;;5087546;28;19908;-78
2022/08/01 06:56:01;;;;;;;;;;;18.90;66.70;;;;;;5087435;28;19915;-78
2022/08/01 06:58:26;;;;;;;;;;;18.70;66.70;;;;;;5088671;28;19994;-78
2022/08/01 07:00:52;;;;;;;;;;;18.60;67.00;;;;;;5087081;28;20300;-77
2022/08/01 07:03:17;;;;;;;;;;;18.40;67.10;;;;;;5070346;28;19987;-77
2022/08/01 07:05:43;;;;;;;;;;;18.30;67.30;;;;;;5070369;28;19958;-77
2022/08/01 07:08:08;;;;;;;;;;;18.20;67.40;;;;;;5087378;28;20393;-78
2022/08/01 07:10:34;;;;;;;;;;;18.20;67.40;;;;;;5070327;28;20299;-77
2022/08/01 07:12:59;;;;;;;;;;;18.20;67.60;;;;;;5087255;28;19912;-78
2022/08/01 07:15:26;;;;;;;;;;;18.60;68.20;;;;;;5088616;28;20424;-77
2022/08/01 07:17:52;;;;;;;;;;;19.50;68.80;;;;;;5070239;28;20371;-77
2022/08/01 07:20:17;;;;;;;;;;;20.80;67.30;;;;;;5087035;28;19981;-77
2022/08/01 07:22:43;;;;;;;;;;;21.50;66.50;;;;;;5070220;28;19958;-77
2022/08/01 07:25:09;;;;;;;;;;;22.50;65.80;;;;;;5087050;28;20298;-77
2022/08/01 07:27:35;;;;;;;;;;;23.20;65.60;;;;;;5086815;28;20425;-77
2022/08/01 07:30:00;;;;;;;;;;;24.40;65.50;;;;;;5087952;28;20275;-77
2022/08/01 07:32:26;;;;;;;;;;;25.70;64.90;;;;;;5069409;28;19958;-77
2022/08/01 07:34:52;;;;;;;;;;;27.00;64.40;;;;;;5069797;28;19912;-77
2022/08/01 07:37:17;;;;;;;;;;;28.00;63.80;;;;;;5069740;28;19923;-77
2022/08/01 07:39:43;;;;;;;;;;;28.60;63.40;;;;;;5086147;28;19920;-77
2022/08/01 07:42:10;;;;;;;;;;;29.00;63.30;;;;;;5085862;28;20185;-77
2022/08/01 07:44:36;;;;;;;;;;;29.50;63.40;;;;;;5086445;28;19912;-78
2022/08/01 07:47:02;;;;;;;;;;;30.10;63.80;;;;;;5087715;28;19952;-78
2022/08/01 07:49:28;;;;;;;;;;;30.60;63.90;;;;;;5086389;28;20367;-77
2022/08/01 07:51:54;;;;;;;;;;;31.00;64.20;;;;;;5087649;28;19917;-77
2022/08/01 07:54:19;;;;;;;;;;;31.50;64.50;;;;;;5086480;28;19908;-78
2022/08/01 07:56:45;;;;;;;;;;;31.90;64.40;;;;;;5086169;28;20277;-78
2022/08/01 07:59:10;;;;;;;;;;;32.00;64.50;;;;;;5069112;28;20341;-78
2022/08/01 08:01:36;;;;;;;;;;;32.10;64.90;;;;;;5087678;28;19938;-78
2022/08/01 08:04:02;;;;;;;;;;;32.30;65.00;;;;;;5086194;28;19916;-78
2022/08/01 08:06:27;;;;;;;;;;;32.80;65.40;;;;;;5087324;28;20003;-78
2022/08/01 08:08:53;;;;;;;;;;;33.20;65.20;;;;;;5087431;28;20371;-78
2022/08/01 08:11:19;;;;;;;;;;;32.90;65.10;;;;;;5087659;28;20011;-78
2022/08/01 08:13:44;;;;;;;;;;;32.90;65.70;;;;;;5086456;28;19909;-78
2022/08/01 08:16:10;;;;;;;;;;;33.30;66.00;;;;;;5069293;28;19912;-78
2022/08/01 08:18:36;;;;;;;;;;;33.60;65.90;;;;;;5086245;28;19912;-78
2022/08/01 08:21:02;;;;;;;;;;;33.70;65.70;;;;;;5069312;28;20291;-78
2022/08/01 08:26:12;;;;;;;;;;;33.70;66.40;;;;;;5086720;28;19975;-78
2022/08/01 08:28:38;;;;;;;;;;;34.20;66.40;;;;;;5085896;28;19955;-78
2022/08/01 08:31:03;;;;;;;;;;;34.50;65.90;;;;;;5085663;28;19923;-78
2022/08/01 08:33:29;;;;;;;;;;;34.40;66.20;;;;;;5068877;28;19912;-77
2022/08/01 08:35:54;;;;;;;;;;;34.60;66.70;;;;;;5087020;28;19924;-78
2022/08/01 08:38:20;;;;;;;;;;;34.30;66.20;;;;;;5085962;28;19912;-78
2022/08/01 08:40:45;;;;;;;;;;;33.70;66.00;;;;;;5085676;28;19924;-79
2022/08/01 08:43:11;;;;;;;;;;;32.80;66.00;;;;;;5069649;28;19916;-78
2022/08/01 08:45:37;;;;;;;;;;;32.90;67.30;;;;;;5089426;28;20356;-78
2022/08/01 08:48:04;;;;;;;;;;;33.40;67.80;;;;;;5072124;28;20275;-78
2022/08/01 08:50:30;;;;;;;;;;;34.10;67.30;;;;;;5089023;28;19915;-78
2022/08/01 08:52:56;;;;;;;;;;;34.30;67.20;;;;;;5089269;28;20261;-78
2022/08/01 08:55:22;;;;;;;;;;;34.60;67.40;;;;;;5090570;28;19946;-78
2022/08/01 08:57:48;;;;;;;;;;;35.10;67.20;;;;;;5088892;28;19923;-78
2022/08/01 09:00:15;;;;;;;;;;;35.50;66.90;;;;;;5072407;28;20272;-78
2022/08/01 09:02:43;;;;;;;;;;;35.70;66.50;;;;;;5089054;28;19919;-78
2022/08/01 09:05:09;;;;;;;;;;;35.30;66.10;;;;;;5090479;28;20318;-78
2022/08/01 09:07:34;;;;;;;;;;;34.50;66.50;;;;;;5089088;28;19918;-78
2022/08/01 09:10:00;;;;;;;;;;;33.80;66.60;;;;;;5071752;28;19955;-78
2022/08/01 09:12:25;;;;;;;;;;;33.40;67.00;;;;;;5071815;28;20326;-78
2022/08/01 09:14:53;;;;;;;;;;;33.00;67.00;;;;;;5088827;28;19956;-78
2022/08/01 09:17:19;;;;;;;;;;;32.80;67.10;;;;;;5088514;28;19927;-78
2022/08/01 09:19:47;;;;;;;;;;;32.30;67.20;;;;;;5071791;28;19916;-78
2022/08/01 09:22:17;;;;;;;;;;;32.10;67.50;;;;;;5088618;28;19908;-78
2022/08/01 09:24:56;;;;;;;;;;;31.70;67.40;;;;;;5088905;28;19995;-78
2022/08/01 09:27:25;;;;;;;;;;;31.40;67.50;;;;;;5088710;28;19913;-78
2022/08/01 09:29:51;;;;;;;;;;;31.20;67.50;;;;;;5088318;28;20344;-78
2022/08/01 09:32:17;;;;;;;;;;;31.30;67.90;;;;;;5071650;28;20360;-78
2022/08/01 09:34:42;;;;;;;;;;;31.60;67.90;;;;;;5089569;28;19959;-78
2022/08/01 09:37:08;;;;;;;;;;;31.80;67.60;;;;;;5089696;28;20318;-79
2022/08/01 09:39:37;;;;;;;;;;;31.70;67.20;;;;;;5087865;28;20027;-78
2022/08/01 09:42:23;;;;;;;;;;;31.60;67.30;;;;;;5089626;28;19912;-78
2022/08/01 09:44:48;;;;;;;;;;;31.50;67.30;;;;;;5087585;28;20261;-77
2022/08/01 09:47:16;;;;;;;;;;;31.90;67.70;;;;;;5089362;28;19923;-78
2022/08/01 09:49:42;;;;;;;;;;;32.20;67.50;;;;;;5088081;28;19951;-77
2022/08/01 09:52:15;;;;;;;;;;;32.30;67.10;;;;;;5088249;28;19947;-79
2022/08/01 09:54:41;;;;;;;;;;;32.20;67.50;;;;;;5087691;28;20006;-78
2022/08/01 09:57:14;;;;;;;;;;;32.30;67.90;;;;;;5089483;28;19908;-78
2022/08/01 09:59:42;;;;;;;;;;;32.20;67.60;;;;;;5089225;28;19908;-78
2022/08/01 10:02:08;;;;;;;;;;;32.30;68.50;;;;;;5088572;28;19935;-78
2022/08/01 10:04:34;;;;;;;;;;;32.60;68.30;;;;;;5087733;28;19991;-78
2022/08/01 10:07:04;;;;;;;;;;;33.20;68.30;;;;;;5088980;28;20399;-78
2022/08/01 10:09:31;;;;;;;;;;;33.70;67.60;;;;;;5089077;28;19920;-75
2022/08/01 10:11:58;;;;;;;;;;;33.80;67.60;;;;;;5088684;28;20004;-77
2022/08/01 10:14:24;;;;;;;;;;;33.70;67.60;;;;;;5089498;28;19946;-79
2022/08/01 10:16:51;;;;;;;;;;;33.80;67.60;;;;;;5086949;28;19916;-78
2022/08/01 10:19:17;;;;;;;;;;;33.70;67.50;;;;;;5087133;28;19912;-78
2022/08/01 10:21:44;;;;;;;;;;;33.70;67.70;;;;;;5070410;28;20007;-78
2022/08/01 10:24:10;;;;;;;;;;;33.90;68.00;;;;;;5070664;28;19916;-79
2022/08/01 10:26:37;;;;;;;;;;;33.90;67.50;;;;;;5087151;28;19916;-78
2022/08/01 10:29:03;;;;;;;;;;;33.40;67.00;;;;;;5088684;28;20366;-78
2022/08/01 10:31:32;;;;;;;;;;;33.00;67.30;;;;;;5086848;28;19912;-78
2022/08/01 10:33:58;;;;;;;;;;;32.90;67.70;;;;;;5087019;28;19987;-78
2022/08/01 10:36:24;;;;;;;;;;;33.00;67.80;;;;;;5088390;28;20007;-78
2022/08/01 10:38:50;;;;;;;;;;;32.70;67.30;;;;;;5086535;28;19916;-79
2022/08/01 10:41:15;;;;;;;;;;;32.20;67.40;;;;;;5087454;28;19924;-78
2022/08/01 10:43:41;;;;;;;;;;;31.70;67.40;;;;;;5087216;28;19930;-76
2022/08/01 10:46:07;;;;;;;;;;;31.60;67.90;;;;;;5087285;28;19908;-81
2022/08/01 10:48:39;;;;;;;;;;;31.60;67.70;;;;;;5088432;28;20006;-84
2022/08/01 10:51:05;;;;;;;;;;;31.50;67.50;;;;;;5087171;28;19916;-83
2022/08/01 10:53:32;;;;;;;;;;;31.10;67.60;;;;;;5087214;28;19913;-84
2022/08/01 10:56:03;;;;;;;;;;;30.70;67.70;;;;;;5069928;28;20230;-83
2022/08/01 10:58:29;;;;;;;;;;;30.40;67.60;;;;;;5069647;28;20373;-83
2022/08/01 11:01:13;;;;;;;;;;;30.20;67.50;;;;;;5086398;28;19911;-83
2022/08/01 11:03:39;;;;;;;;;;;30.00;67.50;;;;;;5086981;28;19999;-83
2022/08/01 11:06:04;;;;;;;;;;;29.60;67.30;;;;;;5085457;28;20011;-83
2022/08/01 11:08:31;;;;;;;;;;;29.30;67.30;;;;;;5087547;28;19920;-82
2022/08/01 11:11:04;;;;;;;;;;;29.00;67.20;;;;;;5085929;28;19916;-83
2022/08/01 11:13:49;;;;;;;;;;;28.60;67.30;;;;;;5086143;28;19999;-84
2022/08/01 11:16:27;;;;;;;;;;;28.40;67.30;;;;;;5087670;28;20352;-83
2022/08/01 11:18:53;;;;;;;;;;;28.10;67.10;;;;;;5086160;28;20276;-82
2022/08/01 11:21:19;;;;;;;;;;;27.70;67.10;;;;;;5085942;28;19912;-83
2022/08/01 11:23:48;;;;;;;;;;;27.40;67.10;;;;;;5086712;28;19925;-82
2022/08/01 11:26:14;;;;;;;;;;;27.20;67.10;;;;;;5085795;28;19930;-82
2022/08/01 11:28:40;;;;;;;;;;;27.10;67.40;;;;;;5087125;28;19914;-82
2022/08/01 11:31:09;;;;;;;;;;;27.00;67.30;;;;;;5087206;28;19912;-83
2022/08/01 11:33:47;;;;;;;;;;;26.70;67.10;;;;;;5085987;28;19941;-83
2022/08/01 11:36:13;;;;;;;;;;;26.60;67.50;;;;;;5086268;28;20462;-83
2022/08/01 11:38:38;;;;;;;;;;;26.60;67.60;;;;;;5085759;28;19908;-84
2022/08/01 11:41:13;;;;;;;;;;;26.50;67.30;;;;;;5086884;28;19966;-86
2022/08/01 11:43:55;;;;;;;;;;;26.40;67.30;;;;;;5089222;28;20278;-84
2022/08/01 11:46:39;;;;;;;;;;;26.40;67.40;;;;;;5089972;28;19916;-85
2022/08/01 11:49:23;;;;;;;;;;;26.40;67.20;;;;;;5088118;28;19958;-85
2022/08/01 11:51:56;;;;;;;;;;;26.40;67.20;;;;;;5087224;28;19912;-85
2022/08/01 11:54:24;;;;;;;;;;;26.40;67.10;;;;;;5088045;28;19907;-86
2022/08/01 11:56:53;;;;;;;;;;;26.30;67.00;;;;;;5086239;28;19920;-84
2022/08/01 11:59:19;;;;;;;;;;;26.20;66.80;;;;;;5086649;28;20059;-83
2022/08/01 12:01:44;;;;;;;;;;;26.20;66.90;;;;;;5086293;28;20474;-85
2022/08/01 12:04:10;;;;;;;;;;;26.20;67.00;;;;;;5090455;28;19912;-83
2022/08/01 12:06:36;;;;;;;;;;;26.30;67.00;;;;;;5084956;28;19912;-85
2022/08/01 12:09:18;;;;;;;;;;;26.30;66.90;;;;;;5102858;28;19912;-84
2022/08/01 12:11:44;;;;;;;;;;;26.50;67.10;;;;;;5099246;28;19986;-83
2022/08/01 12:14:14;;;;;;;;;;;26.50;67.20;;;;;;5092174;28;20002;-84
2022/08/01 12:16:40;;;;;;;;;;;26.40;66.70;;;;;;5097036;28;20045;-83
2022/08/01 12:19:06;;;;;;;;;;;26.20;66.70;;;;;;5103520;28;19912;-83
2022/08/01 12:21:32;;;;;;;;;;;26.10;66.90;;;;;;5093843;28;20186;-80
2022/08/01 12:24:01;;;;;;;;;;;26.00;66.80;;;;;;5071495;28;20271;-80
2022/08/01 12:26:40;;;;;;;;;;;25.90;67.10;;;;;;5089816;28;19915;-80
2022/08/01 12:29:06;;;;;;;;;;;25.80;66.90;;;;;;5087938;28;19953;-80
2022/08/01 12:31:33;;;;;;;;;;;25.80;67.20;;;;;;5087329;28;20326;-81
2022/08/01 12:34:18;;;;;;;;;;;25.90;67.50;;;;;;5088350;28;19908;-80
2022/08/01 12:36:44;;;;;;;;;;;26.20;67.50;;;;;;5087200;28;19915;-81
2022/08/01 12:39:10;;;;;;;;;;;26.50;67.20;;;;;;5088383;28;20368;-79
2022/08/01 12:41:36;;;;;;;;;;;26.70;67.00;;;;;;5089166;28;19998;-79
2022/08/01 12:44:02;;;;;;;;;;;26.80;66.80;;;;;;5087319;28;19912;-80
2022/08/01 12:46:27;;;;;;;;;;;26.60;66.40;;;;;;5087835;28;19908;-79
2022/08/01 12:48:53;;;;;;;;;;;26.40;66.40;;;;;;5086035;28;19972;-78
2022/08/01 12:51:18;;;;;;;;;;;26.20;66.50;;;;;;5068737;28;20001;-80
2022/08/01 12:53:45;;;;;;;;;;;26.10;66.60;;;;;;5084935;28;19946;-79
2022/08/01 12:56:11;;;;;;;;;;;26.00;66.70;;;;;;5085247;28;19924;-79
2022/08/01 12:58:36;;;;;;;;;;;25.90;66.60;;;;;;5068154;28;19969;-80
2022/08/01 13:01:03;;;;;;;;;;;25.70;66.50;;;;;;5086207;28;20018;-80
2022/08/01 13:03:29;;;;;;;;;;;25.60;66.70;;;;;;5086329;28;19920;-80
2022/08/01 13:05:55;;;;;;;;;;;25.50;66.80;;;;;;5085662;28;19916;-82
2022/08/01 13:08:31;;;;;;;;;;;25.40;66.70;;;;;;5084566;28;19912;-79
2022/08/01 13:11:01;;;;;;;;;;;25.40;66.80;;;;;;5084244;28;19919;-80
2022/08/01 13:13:37;;;;;;;;;;;25.30;66.60;;;;;;5068116;28;20029;-80
2022/08/01 13:16:04;;;;;;;;;;;25.00;66.50;;;;;;5085004;28;19916;-79
2022/08/01 13:18:30;;;;;;;;;;;24.80;66.60;;;;;;5084647;28;19924;-78
2022/08/01 13:21:13;;;;;;;;;;;24.60;66.90;;;;;;5085435;28;19931;-80
2022/08/01 13:23:40;;;;;;;;;;;24.50;67.20;;;;;;5084247;28;20074;-80
2022/08/01 13:26:06;;;;;;;;;;;24.60;67.10;;;;;;5087551;28;20010;-80
2022/08/01 13:28:32;;;;;;;;;;;24.50;66.90;;;;;;5083604;28;19916;-79
2022/08/01 13:31:05;;;;;;;;;;;24.40;66.80;;;;;;5084357;28;20380;-80
2022/08/01 13:33:45;;;;;;;;;;;24.30;66.90;;;;;;5084304;28;19908;-79
2022/08/01 13:36:11;;;;;;;;;;;24.20;66.80;;;;;;5083994;28;19915;-78
2022/08/01 13:41:21;;;;;;;;;;;24.10;67.00;;;;;;5086359;28;20015;-78
2022/08/01 13:43:47;;;;;;;;;;;23.90;66.90;;;;;;5066908;28;20346;-79
2022/08/01 13:46:12;;;;;;;;;;;23.80;66.80;;;;;;5084577;28;20048;-78
2022/08/01 13:48:38;;;;;;;;;;;23.60;66.90;;;;;;5083504;28;19988;-80
2022/08/01 13:51:03;;;;;;;;;;;23.50;67.00;;;;;;5066407;28;20336;-80
2022/08/01 13:53:29;;;;;;;;;;;23.50;67.60;;;;;;5065683;28;19954;-79
2022/08/01 13:55:55;;;;;;;;;;;23.40;67.30;;;;;;5083049;28;20308;-79
2022/08/01 13:58:20;;;;;;;;;;;23.50;67.30;;;;;;5083962;28;20333;-79
2022/08/01 14:00:46;;;;;;;;;;;23.50;67.20;;;;;;5082896;28;20335;-79
2022/08/01 14:03:12;;;;;;;;;;;23.50;67.10;;;;;;5066553;28;19924;-79
2022/08/01 14:05:39;;;;;;;;;;;23.50;67.00;;;;;;5084030;28;19916;-80
2022/08/01 14:08:05;;;;;;;;;;;23.50;67.00;;;;;;5083032;28;19919;-78
2022/08/01 14:10:30;;;;;;;;;;;23.50;67.00;;;;;;5081805;28;20006;-79
2022/08/01 14:12:57;;;;;;;;;;;23.50;67.00;;;;;;5082684;28;19983;-79
2022/08/01 14:15:23;;;;;;;;;;;23.40;66.80;;;;;;5084835;28;19915;-80
2022/08/01 14:17:49;;;;;;;;;;;23.40;66.90;;;;;;5082385;28;19952;-78
2022/08/01 14:20:14;;;;;;;;;;;23.30;66.90;;;;;;5082936;28;19957;-79
2022/08/01 14:22:40;;;;;;;;;;;23.30;67.10;;;;;;5083115;28;19912;-78
2022/08/01 14:25:06;;;;;;;;;;;23.40;67.00;;;;;;5065843;28;19967;-79